Time;durP1;ratioP1;P1;durP2;ratioP2;P2;SDS_P1;SDS_P2;PMS_P1;PMS_P2;Temp;Humidity;BMP_temperature;BMP_pressure;BME280_temperature;BME280_humidity;BME280_pressure;Samples;Min_cycle;Max_cycle;Signal;HPM_P1;HPM_P2
2023/03/20 00:01:43;;;;;;;18.70;13.17;;;;;;;8.01;71.82;97402.09;4899707;29;20190;-76
2023/03/20 00:05:03;;;;;;;19.90;13.67;;;;;;;7.92;72.11;97399.78;4904974;29;20187;-78
2023/03/20 00:08:24;;;;;;;20.20;13.33;;;;;;;7.73;72.63;97384.91;4899539;29;20214;-75
2023/03/20 00:11:25;;;;;;;23.63;13.53;;;;;;;7.74;73.04;97405.47;4896900;29;20226;-76
2023/03/20 00:14:46;;;;;;;21.50;12.67;;;;;;;7.87;72.60;97401.63;4896838;29;20264;-76
2023/03/20 00:18:06;;;;;;;19.23;11.30;;;;;;;7.81;72.54;97383.78;4896884;29;20234;-75
2023/03/20 00:21:36;;;;;;;19.77;11.87;;;;;;;7.64;71.91;97365.38;4897451;29;20240;-76
2023/03/20 00:25:12;;;;;;;18.30;11.60;;;;;;;7.68;72.90;97382.47;4896688;29;20262;-74
2023/03/20 00:28:31;;;;;;;16.80;10.67;;;;;;;7.50;72.93;97379.56;4896572;29;20194;-74
2023/03/20 00:31:55;;;;;;;19.93;11.20;;;;;;;7.53;71.93;97374.31;4896611;29;20680;-76
2023/03/20 00:35:16;;;;;;;21.03;12.43;;;;;;;7.61;72.68;97370.63;4880025;29;20591;-74
2023/03/20 00:38:37;;;;;;;18.93;11.37;;;;;;;7.42;72.17;97373.78;4897204;29;20241;-73
2023/03/20 00:42:10;;;;;;;23.43;12.10;;;;;;;7.38;72.91;97376.44;4896714;29;20216;-75
2023/03/20 00:45:33;;;;;;;19.90;11.10;;;;;;;7.40;72.20;97368.66;4898469;29;20194;-79
2023/03/20 00:48:54;;;;;;;20.80;11.37;;;;;;;7.17;71.72;97366.69;4880090;29;20204;-78
2023/03/20 00:52:15;;;;;;;15.17;10.10;;;;;;;6.69;74.20;97365.44;4897314;29;20240;-80
2023/03/20 00:55:36;;;;;;;16.83;9.40;;;;;;;6.42;76.00;97346.38;4894645;29;20697;-80
2023/03/20 00:58:56;;;;;;;17.90;11.07;;;;;;;6.10;78.14;97359.16;4877369;29;20202;-76
2023/03/20 01:02:17;;;;;;;18.63;11.00;;;;;;;5.89;78.75;97340.81;4878802;29;20251;-80
2023/03/20 01:05:38;;;;;;;22.03;11.00;;;;;;;5.81;79.56;97340.09;4894126;29;20198;-80
2023/03/20 01:08:59;;;;;;;19.03;12.10;;;;;;;5.73;81.36;97333.41;4877076;29;20208;-75
2023/03/20 01:12:19;;;;;;;18.30;10.30;;;;;;;5.65;80.50;97335.28;4893262;29;20303;-73
2023/03/20 01:15:40;;;;;;;16.47;10.67;;;;;;;5.50;81.58;97329.66;4893569;29;20197;-75
2023/03/20 01:19:01;;;;;;;17.60;9.90;;;;;;;5.52;80.96;97330.47;4895755;29;20247;-82
2023/03/20 01:22:21;;;;;;;16.20;10.70;;;;;;;5.54;81.62;97321.00;4900651;29;20211;-77
2023/03/20 01:25:42;;;;;;;19.60;11.43;;;;;;;5.40;82.08;97317.91;4877379;29;20227;-78
2023/03/20 01:29:03;;;;;;;16.20;9.50;;;;;;;5.46;82.35;97308.31;4877992;29;20291;-74
2023/03/20 01:32:23;;;;;;;17.13;9.80;;;;;;;5.62;81.87;97308.84;4893082;29;20236;-77
2023/03/20 01:35:44;;;;;;;18.43;9.67;;;;;;;5.86;80.74;97313.44;4893511;29;20213;-79
2023/03/20 01:39:05;;;;;;;16.87;9.93;;;;;;;6.13;79.22;97310.25;4876615;29;20283;-79
2023/03/20 01:42:27;;;;;;;17.43;10.70;;;;;;;6.43;78.45;97301.75;4892034;29;20852;-80
2023/03/20 01:45:51;;;;;;;21.73;13.07;;;;;;;6.36;77.71;97289.97;4893115;29;20281;-80
2023/03/20 01:48:49;;;;;;;21.43;12.30;;;;;;;6.52;76.44;97305.81;4892286;29;20640;-76
2023/03/20 01:52:09;;;;;;;20.73;11.60;;;;;;;6.49;75.55;97304.16;4876362;29;20688;-76
2023/03/20 01:55:30;;;;;;;20.03;11.67;;;;;;;6.31;77.89;97290.94;4876350;29;20199;-79
2023/03/20 01:58:52;;;;;;;16.60;11.13;;;;;;;6.29;77.32;97303.84;4892905;29;20212;-74
2023/03/20 02:02:12;;;;;;;22.33;11.63;;;;;;;6.32;76.73;97303.78;4875736;29;20251;-75
2023/03/20 02:05:33;;;;;;;18.30;11.17;;;;;;;6.06;76.96;97311.25;4876109;29;20201;-77
2023/03/20 02:08:23;;;;;;;20.77;11.70;;;;;;;5.90;77.68;97309.94;4892273;29;20203;-74
2023/03/20 02:11:44;;;;;;;17.80;11.53;;;;;;;5.53;78.75;97301.31;4875393;29;20272;-74
2023/03/20 02:15:05;;;;;;;16.93;10.20;;;;;;;5.22;80.37;97293.44;4875436;29;20602;-77
2023/03/20 02:18:55;;;;;;;18.80;11.13;;;;;;;5.09;82.51;97298.84;4885631;29;20213;-78
2023/03/20 02:22:23;;;;;;;20.43;11.90;;;;;;;5.05;82.49;97299.78;4875676;29;20197;-81
2023/03/20 02:25:22;;;;;;;19.00;11.03;;;;;;;5.00;83.99;97288.75;4877360;29;20237;-75
2023/03/20 02:28:15;;;;;;;17.53;10.97;;;;;;;5.01;84.17;97293.84;4875312;29;20199;-77
2023/03/20 02:31:06;;;;;;;18.53;10.17;;;;;;;5.06;84.50;97291.22;4875517;29;20655;-78
2023/03/20 02:33:59;;;;;;;19.83;11.30;;;;;;;5.14;84.56;97303.00;4890662;29;20295;-75
2023/03/20 02:36:58;;;;;;;19.30;11.00;;;;;;;5.14;84.01;97297.03;4875137;29;20275;-77
2023/03/20 02:39:51;;;;;;;21.93;11.77;;;;;;;5.11;84.60;97294.53;4890818;29;20197;-75
2023/03/20 02:43:32;;;;;;;20.87;12.37;;;;;;;5.13;84.66;97295.34;4890394;29;20270;-79
2023/03/20 02:46:47;;;;;;;19.77;11.63;;;;;;;5.15;84.22;97291.03;4875981;29;20193;-77
2023/03/20 02:49:51;;;;;;;19.40;11.83;;;;;;;5.08;85.03;97279.19;4891566;29;20726;-79
2023/03/20 02:52:44;;;;;;;23.83;12.87;;;;;;;5.12;85.23;97286.81;4875374;29;20196;-76
2023/03/20 02:56:16;;;;;;;22.50;12.33;;;;;;;4.81;85.83;97275.44;4890755;29;20200;-77
2023/03/20 02:59:25;;;;;;;20.23;12.03;;;;;;;4.83;86.04;97274.56;4866468;29;20222;-77
2023/03/20 03:02:31;;;;;;;23.33;12.67;;;;;;;4.83;85.83;97274.56;4902881;29;20201;-78
2023/03/20 03:05:52;;;;;;;21.33;11.87;;;;;;;4.77;85.82;97276.38;4896049;29;20207;-80
2023/03/20 03:09:13;;;;;;;19.50;11.27;;;;;;;4.97;86.24;97267.41;4891401;29;20227;-78
2023/03/20 03:12:35;;;;;;;19.23;11.83;;;;;;;5.07;85.38;97272.38;4890218;29;20236;-77
2023/03/20 03:15:56;;;;;;;18.63;12.03;;;;;;;5.22;84.56;97272.03;4854700;29;20205;-74
2023/03/20 03:19:28;;;;;;;31.23;14.77;;;;;;;5.24;85.42;97260.88;4852543;29;20283;-75
2023/03/20 03:22:49;;;;;;;21.77;12.03;;;;;;;4.92;85.83;97209.38;4853317;29;20695;-74
2023/03/20 03:26:13;;;;;;;23.23;12.43;;;;;;;5.12;86.03;97260.28;4854983;29;20203;-73
2023/03/20 03:29:36;;;;;;;21.33;11.47;;;;;;;5.46;83.93;97271.53;4853323;29;20539;-75
2023/03/20 03:32:59;;;;;;;18.47;10.97;;;;;;;5.51;82.81;97249.16;4854771;29;20685;-74
2023/03/20 03:36:20;;;;;;;18.83;10.70;;;;;;;5.51;82.78;97259.41;4853299;29;20233;-77
2023/03/20 03:39:39;;;;;;;23.50;11.87;;;;;;;5.41;83.07;97258.78;4837963;29;20224;-78
2023/03/20 03:43:15;;;;;;;21.77;11.67;;;;;;;5.50;82.45;97257.75;4852616;29;20205;-81
2023/03/20 03:46:36;;;;;;;19.87;12.30;;;;;;;5.27;82.01;97253.13;4859326;29;20193;-79
2023/03/20 03:49:57;;;;;;;18.37;11.77;;;;;;;5.35;82.39;97253.78;4861045;29;20293;-80
2023/03/20 03:53:17;;;;;;;18.87;12.20;;;;;;;5.42;82.20;97265.59;4857098;29;20196;-82
2023/03/20 03:56:38;;;;;;;22.63;11.77;;;;;;;5.40;81.51;97253.69;4866916;29;20211;-75
2023/03/20 03:59:59;;;;;;;23.03;12.67;;;;;;;5.55;80.03;97259.31;4864906;29;20201;-75
2023/03/20 04:03:23;;;;;;;21.53;12.70;;;;;;;5.29;80.18;97253.94;4873130;29;20206;-74
2023/03/20 04:06:43;;;;;;;20.37;11.57;;;;;;;5.23;81.04;97253.22;4873246;29;20207;-75
2023/03/20 04:10:06;;;;;;;21.53;11.67;;;;;;;5.23;80.89;97258.34;4859633;29;20687;-74
2023/03/20 04:13:27;;;;;;;18.77;11.30;;;;;;;5.34;79.56;97251.22;4871501;29;20691;-75
2023/03/20 04:16:48;;;;;;;18.07;11.10;;;;;;;5.18;79.80;97252.44;4879981;29;20193;-74
2023/03/20 04:20:11;;;;;;;21.03;11.97;;;;;;;4.88;81.64;97257.34;4872391;29;20687;-79
2023/03/20 04:23:32;;;;;;;19.60;11.50;;;;;;;4.68;82.19;97254.31;4873574;29;20188;-77
2023/03/20 04:26:53;;;;;;;23.50;13.20;;;;;;;4.64;82.75;97265.50;4872089;29;20712;-75
2023/03/20 04:30:16;;;;;;;24.53;14.10;;;;;;;4.80;83.10;97272.03;4871943;29;20207;-76
2023/03/20 04:34:16;;;;;;;22.73;12.20;;;;;;;4.84;82.00;97278.78;4872308;29;20274;-79
2023/03/20 04:37:45;;;;;;;20.57;10.60;;;;;;;4.69;82.48;97276.53;4895442;29;20645;-78
2023/03/20 04:41:10;;;;;;;17.73;11.63;;;;;;;4.62;83.67;97277.53;4878066;29;20206;-76
2023/03/20 04:44:34;;;;;;;17.97;10.27;;;;;;;4.53;84.72;97279.41;4890627;29;20684;-75
2023/03/20 04:47:56;;;;;;;20.10;11.17;;;;;;;4.52;85.00;97281.13;4909166;29;20206;-79
2023/03/20 04:51:17;;;;;;;17.80;11.20;;;;;;;4.65;84.72;97285.19;4911526;29;20231;-77
2023/03/20 04:54:38;;;;;;;16.03;9.53;;;;;;;4.88;83.48;97293.25;4906432;29;20194;-72
2023/03/20 04:58:00;;;;;;;16.13;9.67;;;;;;;5.20;81.57;97295.19;4889363;29;20247;-80
2023/03/20 05:01:22;;;;;;;15.50;10.27;;;;;;;5.37;81.10;97302.53;4876738;29;20240;-78
2023/03/20 05:04:42;;;;;;;16.63;9.97;;;;;;;5.24;80.20;97301.94;4892083;29;20211;-78
2023/03/20 05:08:03;;;;;;;21.17;11.60;;;;;;;5.10;81.52;97290.25;4890887;29;20206;-76
2023/03/20 05:11:24;;;;;;;18.53;10.43;;;;;;;5.31;81.65;97288.13;4885194;29;20223;-73
2023/03/20 05:14:48;;;;;;;18.97;10.80;;;;;;;5.33;82.95;97288.94;4894287;29;20721;-79
2023/03/20 05:18:38;;;;;;;16.70;10.60;;;;;;;5.59;82.51;97288.34;4837952;29;20202;-78
2023/03/20 05:22:14;;;;;;;18.90;10.60;;;;;;;6.04;80.85;97279.59;4893897;29;20204;-79
2023/03/20 05:25:57;;;;;;;20.97;11.10;;;;;;;6.59;80.11;97290.19;4894082;29;20206;-78
2023/03/20 05:29:46;;;;;;;18.27;10.20;;;;;;;6.58;77.77;97293.66;4876898;29;20327;-79
2023/03/20 05:33:35;;;;;;;16.37;11.07;;;;;;;6.75;77.50;97289.78;4877229;29;20199;-76
2023/03/20 05:37:16;;;;;;;18.10;10.60;;;;;;;6.94;77.05;97280.69;4894011;29;20590;-78
2023/03/20 05:40:44;;;;;;;21.77;11.83;;;;;;;7.12;76.01;97290.47;4876703;29;20257;-74
2023/03/20 05:44:28;;;;;;;15.23;9.60;;;;;;;7.07;76.58;97289.75;4866030;29;20211;-83
2023/03/20 05:48:09;;;;;;;15.87;9.43;;;;;;;7.09;76.72;97293.16;4893292;29;20223;-82
2023/03/20 05:51:48;;;;;;;18.67;9.77;;;;;;;7.29;75.70;97296.81;4893351;29;20656;-82
2023/03/20 05:55:44;;;;;;;16.67;10.13;;;;;;;7.56;75.12;97295.19;4835869;29;20207;-84
2023/03/20 05:59:20;;;;;;;15.60;9.10;;;;;;;7.83;74.48;97290.94;4893485;29;20853;-80
2023/03/20 06:03:02;;;;;;;18.60;10.93;;;;;;;8.05;73.34;97285.06;4860686;29;20637;-82
2023/03/20 06:06:44;;;;;;;16.90;10.43;;;;;;;8.41;71.89;97287.38;4896650;29;20661;-80
2023/03/20 06:10:05;;;;;;;17.13;10.53;;;;;;;8.55;70.93;97290.31;4877569;29;20226;-80
2023/03/20 06:13:28;;;;;;;18.27;11.33;;;;;;;8.85;70.65;97284.94;4876757;29;20254;-77
2023/03/20 06:16:50;;;;;;;19.90;13.37;;;;;;;9.10;69.63;97287.50;4876985;29;20203;-78
2023/03/20 06:20:11;;;;;;;25.07;12.63;;;;;;;9.16;69.15;97287.28;4875239;29;20236;-76
2023/03/20 06:23:31;;;;;;;17.77;11.93;;;;;;;9.37;68.86;97291.66;4875082;29;20196;-80
2023/03/20 06:26:52;;;;;;;18.20;12.67;;;;;;;9.52;67.79;97288.50;4874934;29;20251;-80
2023/03/20 06:29:49;;;;;;;20.50;12.40;;;;;;;9.60;67.97;97286.47;4875300;29;20224;-74
2023/03/20 06:32:22;;;;;;;18.83;12.43;;;;;;;9.57;67.87;97289.19;4875470;29;20258;-80
2023/03/20 06:34:54;;;;;;;19.03;12.03;;;;;;;9.75;67.76;97293.63;4875799;29;20195;-77
2023/03/20 06:37:21;;;;;;;16.63;12.47;;;;;;;9.64;68.55;97290.59;4892740;29;20196;-79
2023/03/20 06:39:48;;;;;;;19.03;10.63;;;;;;;9.74;68.42;97279.03;4892177;29;20296;-75
2023/03/20 06:42:16;;;;;;;19.07;11.40;;;;;;;10.18;67.65;97284.25;4860254;29;20292;-77
2023/03/20 06:44:46;;;;;;;19.63;11.50;;;;;;;10.04;67.10;97268.38;4878435;29;20190;-73
2023/03/20 06:47:19;;;;;;;25.87;11.17;;;;;;;10.52;66.68;97289.72;4905972;29;20210;-74
2023/03/20 06:49:47;;;;;;;16.27;10.27;;;;;;;10.56;66.55;97278.31;4875593;29;20275;-75
2023/03/20 06:52:17;;;;;;;18.03;11.23;;;;;;;10.51;66.35;97280.25;4890503;29;20231;-77
2023/03/20 06:54:51;;;;;;;18.23;11.17;;;;;;;10.61;66.08;97278.97;4873712;29;20219;-74
2023/03/20 06:57:18;;;;;;;14.70;9.97;;;;;;;10.85;65.80;97283.09;4859367;29;20201;-77
2023/03/20 06:59:46;;;;;;;18.40;10.97;;;;;;;10.90;64.52;97285.50;4891906;29;20235;-74
2023/03/20 07:02:13;;;;;;;17.03;9.80;;;;;;;11.08;64.19;97280.38;4893439;29;20283;-74
2023/03/20 07:04:40;;;;;;;16.17;10.00;;;;;;;11.00;64.10;97285.06;4882282;29;20688;-76
2023/03/20 07:07:08;;;;;;;16.63;10.33;;;;;;;11.07;64.15;97275.22;4894220;29;20763;-80
2023/03/20 07:09:35;;;;;;;18.70;10.73;;;;;;;11.35;63.10;97286.91;4894178;29;20206;-81
2023/03/20 07:12:03;;;;;;;17.43;10.93;;;;;;;11.05;63.00;97239.03;4889015;29;20269;-80
2023/03/20 07:14:32;;;;;;;13.33;8.70;;;;;;;11.22;63.89;97279.75;4882623;29;20317;-81
2023/03/20 07:17:03;;;;;;;17.33;9.77;;;;;;;11.38;63.10;97276.41;4896012;29;20209;-77
2023/03/20 07:19:32;;;;;;;14.80;9.07;;;;;;;11.41;63.79;97273.69;4890478;29;20201;-79
2023/03/20 07:22:04;;;;;;;13.67;8.80;;;;;;;11.42;62.98;97239.06;4874437;29;20188;-75
2023/03/20 07:24:37;;;;;;;15.27;8.60;;;;;;;11.41;62.67;97250.34;4875301;29;20618;-77
2023/03/20 07:27:04;;;;;;;13.80;8.50;;;;;;;11.69;63.16;97269.84;4874786;29;20189;-80
2023/03/20 07:29:32;;;;;;;16.70;8.60;;;;;;;11.76;62.21;97273.84;4857932;29;20591;-79
2023/03/20 07:32:01;;;;;;;13.53;9.43;;;;;;;11.98;61.80;97269.31;4858856;29;20631;-83
2023/03/20 07:34:32;;;;;;;21.23;13.47;;;;;;;12.01;61.31;97256.22;4874564;29;20690;-81
2023/03/20 07:37:00;;;;;;;14.93;10.13;;;;;;;12.00;62.02;97254.50;4858791;29;20206;-76
2023/03/20 07:39:28;;;;;;;14.90;9.00;;;;;;;12.12;61.58;97266.91;4873957;29;20200;-79
2023/03/20 07:42:12;;;;;;;14.00;8.77;;;;;;;12.01;61.34;97261.41;4874813;29;20218;-82
2023/03/20 07:44:49;;;;;;;13.27;8.93;;;;;;;11.54;61.79;97221.25;4874251;29;20248;-80
2023/03/20 07:47:16;;;;;;;15.10;9.67;;;;;;;12.09;61.83;97257.53;4859901;29;20203;-76
2023/03/20 07:49:43;;;;;;;14.40;9.97;;;;;;;12.28;61.55;97262.66;4874091;29;20291;-74
2023/03/20 07:52:10;;;;;;;12.23;8.43;;;;;;;12.42;61.06;97264.56;4889542;29;20229;-76
2023/03/20 07:54:38;;;;;;;16.70;9.43;;;;;;;12.65;60.35;97267.69;4891046;29;20209;-80
2023/03/20 07:57:05;;;;;;;14.40;9.27;;;;;;;12.64;59.78;97271.22;4874038;29;20274;-78
2023/03/20 07:59:32;;;;;;;15.00;9.30;;;;;;;12.97;58.98;97274.72;4893171;29;20578;-84
2023/03/20 08:01:59;;;;;;;14.53;9.17;;;;;;;12.87;59.12;97257.91;4891649;29;20254;-79
2023/03/20 08:04:26;;;;;;;12.63;8.20;;;;;;;13.06;58.97;97266.44;4892174;29;20193;-80
2023/03/20 08:06:53;;;;;;;9.60;7.70;;;;;;;13.24;57.84;97266.41;4894733;29;20203;-76
2023/03/20 08:09:20;;;;;;;13.57;8.20;;;;;;;13.13;57.72;97266.97;4895140;29;20201;-78
2023/03/20 08:11:47;;;;;;;16.83;11.27;;;;;;;12.88;58.70;97267.38;4895134;29;20296;-76
2023/03/20 08:14:14;;;;;;;11.40;7.60;;;;;;;12.92;58.96;97258.50;4877555;29;20241;-75
2023/03/20 08:16:41;;;;;;;11.07;7.87;;;;;;;12.93;58.28;97257.59;4878286;29;20202;-79
2023/03/20 08:19:08;;;;;;;13.40;8.37;;;;;;;13.25;57.80;97242.09;4893193;29;20217;-79
2023/03/20 08:21:35;;;;;;;16.70;10.47;;;;;;;13.18;57.73;97252.00;4895654;29;20752;-80
2023/03/20 08:24:02;;;;;;;12.70;8.37;;;;;;;13.19;57.61;97255.44;4903654;29;20213;-78
2023/03/20 08:26:29;;;;;;;19.93;8.80;;;;;;;13.42;56.38;97247.22;4896634;29;20242;-79
2023/03/20 08:28:57;;;;;;;7.87;6.17;;;;;;;13.51;55.88;97250.19;4913680;29;20201;-75
2023/03/20 08:31:24;;;;;;;12.17;6.43;;;;;;;13.40;55.56;97229.09;4912191;29;20225;-73
2023/03/20 08:33:51;;;;;;;8.03;5.30;;;;;;;13.90;54.86;97254.97;4913949;29;20237;-77
2023/03/20 08:36:19;;;;;;;10.70;6.20;;;;;;;13.91;53.95;97233.22;4913153;29;20288;-78
2023/03/20 08:38:48;;;;;;;9.40;6.40;;;;;;;14.34;53.09;97242.91;4912831;29;20577;-78
2023/03/20 08:41:16;;;;;;;7.90;5.17;;;;;;;14.31;52.71;97227.47;4912780;29;20702;-76
2023/03/20 08:43:43;;;;;;;7.83;5.57;;;;;;;14.61;52.01;97245.72;4896391;29;20258;-74
2023/03/20 08:46:10;;;;;;;10.50;5.80;;;;;;;14.61;52.21;97241.31;4913707;29;20208;-74
2023/03/20 08:48:37;;;;;;;8.80;6.43;;;;;;;14.60;52.21;97236.19;4913585;29;20570;-80
2023/03/20 08:51:05;;;;;;;9.10;6.17;;;;;;;14.62;52.12;97237.78;4913729;29;20202;-76
2023/03/20 08:53:32;;;;;;;7.70;5.50;;;;;;;14.59;51.92;97227.53;4896504;29;20226;-80
2023/03/20 08:55:59;;;;;;;9.87;6.03;;;;;;;14.59;52.51;97219.72;4897048;29;20195;-74
2023/03/20 08:58:27;;;;;;;7.97;5.70;;;;;;;14.78;51.70;97223.84;4912276;29;20205;-77
2023/03/20 09:00:54;;;;;;;7.93;5.33;;;;;;;14.85;51.47;97222.56;4913321;29;20429;-79
2023/03/20 09:03:21;;;;;;;9.03;5.20;;;;;;;15.16;51.11;97220.63;4913254;29;20633;-77
2023/03/20 09:05:51;;;;;;;5.97;4.77;;;;;;;15.38;50.33;97212.31;4912727;29;20289;-77
2023/03/20 09:08:18;;;;;;;11.10;5.67;;;;;;;15.37;49.89;97211.44;4912973;29;20262;-80
2023/03/20 09:10:46;;;;;;;7.67;5.67;;;;;;;15.21;50.04;97225.53;4895526;29;20202;-73
2023/03/20 09:13:13;;;;;;;9.47;5.23;;;;;;;15.04;50.23;97220.53;4912868;29;20267;-74
2023/03/20 09:15:54;;;;;;;8.90;5.50;;;;;;;15.28;50.24;97224.25;4911626;29;20228;-76
2023/03/20 09:18:21;;;;;;;10.90;6.10;;;;;;;15.41;50.07;97219.94;4912968;29;20623;-74
2023/03/20 09:20:49;;;;;;;10.77;6.10;;;;;;;15.80;49.43;97219.25;4911674;29;20195;-77
2023/03/20 09:23:17;;;;;;;8.97;5.50;;;;;;;15.81;49.25;97216.53;4912766;29;20195;-74
2023/03/20 09:25:44;;;;;;;9.93;5.87;;;;;;;15.69;49.19;97206.88;4912427;29;20210;-79
2023/03/20 09:28:11;;;;;;;9.80;5.60;;;;;;;15.83;48.74;97214.66;4912235;29;20191;-78
2023/03/20 09:30:38;;;;;;;9.43;5.40;;;;;;;15.97;48.56;97205.97;4913228;29;20232;-76
2023/03/20 09:33:05;;;;;;;9.40;5.87;;;;;;;15.91;48.10;97204.56;4895312;29;20671;-77
2023/03/20 09:35:32;;;;;;;7.97;5.60;;;;;;;16.06;47.97;97210.56;4895573;29;20183;-76
2023/03/20 09:37:59;;;;;;;11.30;7.57;;;;;;;16.13;48.28;97207.47;4911322;29;20198;-76
2023/03/20 09:40:36;;;;;;;9.27;6.80;;;;;;;16.18;47.83;97215.00;4893926;29;20274;-76
2023/03/20 09:43:09;;;;;;;12.30;5.60;;;;;;;16.19;48.13;97203.63;4913930;29;20733;-76
2023/03/20 09:46:00;;;;;;;10.77;6.13;;;;;;;16.32;48.16;97198.44;4911933;29;20243;-77
2023/03/20 09:48:52;;;;;;;14.93;8.43;;;;;;;16.32;47.59;97193.19;4912000;29;20686;-76
2023/03/20 09:51:47;;;;;;;14.33;7.03;;;;;;;16.19;47.82;97193.16;4911719;29;20195;-76
2023/03/20 09:54:38;;;;;;;13.53;8.30;;;;;;;16.12;47.84;97190.13;4909581;29;20282;-74
2023/03/20 09:57:27;;;;;;;12.53;6.37;;;;;;;16.37;47.58;97183.25;4911992;29;20293;-75
2023/03/20 09:59:58;;;;;;;10.13;7.77;;;;;;;16.57;47.80;97190.66;4911520;29;20195;-75
2023/03/20 10:02:44;;;;;;;15.43;6.87;;;;;;;16.30;47.71;97144.47;4911496;29;20676;-79
2023/03/20 10:05:25;;;;;;;14.10;6.13;;;;;;;16.68;47.80;97183.75;4890651;29;20251;-76
2023/03/20 10:08:03;;;;;;;10.40;6.00;;;;;;;16.20;48.57;97181.75;4876104;29;20183;-80
2023/03/20 10:10:48;;;;;;;11.47;6.50;;;;;;;16.05;48.62;97157.47;4893021;29;20196;-76
2023/03/20 10:13:36;;;;;;;9.60;6.20;;;;;;;16.42;48.21;97174.19;4892845;29;20288;-77
2023/03/20 10:16:11;;;;;;;10.13;6.70;;;;;;;16.08;49.05;97178.19;4892391;29;20584;-81
2023/03/20 10:18:45;;;;;;;9.90;6.50;;;;;;;16.45;48.22;97171.38;4892594;29;20405;-75
2023/03/20 10:21:23;;;;;;;11.83;7.60;;;;;;;16.72;47.09;97142.53;4891107;29;20220;-79
2023/03/20 10:24:04;;;;;;;14.67;8.27;;;;;;;17.00;46.22;97173.72;4892290;29;20203;-75
2023/03/20 10:26:34;;;;;;;11.70;7.87;;;;;;;17.14;45.54;97165.75;4877676;29;20200;-76
2023/03/20 10:29:23;;;;;;;13.37;7.80;;;;;;;17.09;47.12;97166.06;4893350;29;20224;-79
2023/03/20 10:32:16;;;;;;;6.83;5.27;;;;;;;17.26;47.21;97154.41;4860960;29;20239;-79
2023/03/20 10:35:21;;;;;;;6.13;5.07;;;;;;;17.46;46.72;97151.22;4892451;29;20251;-78
2023/03/20 10:38:24;;;;;;;8.60;5.37;;;;;;;17.46;46.67;97138.13;4821250;29;20207;-78
2023/03/20 10:40:53;;;;;;;6.43;5.30;;;;;;;17.62;46.71;97146.56;4894596;29;20203;-80
2023/03/20 10:43:26;;;;;;;7.10;4.50;;;;;;;17.23;47.59;97128.44;4893119;29;20219;-75
2023/03/20 10:46:00;;;;;;;6.93;4.50;;;;;;;17.42;46.68;97141.06;4891875;29;20202;-79
2023/03/20 10:48:37;;;;;;;8.10;4.90;;;;;;;17.51;46.20;97137.84;4892573;29;20213;-75
2023/03/20 10:51:10;;;;;;;9.43;5.77;;;;;;;17.73;46.13;97106.50;4875514;29;20296;-78
2023/03/20 10:53:45;;;;;;;8.90;5.83;;;;;;;17.60;45.72;97101.34;4891634;29;20248;-80
2023/03/20 10:56:22;;;;;;;10.07;5.83;;;;;;;17.75;45.19;97115.94;4893225;29;20728;-82
2023/03/20 10:58:58;;;;;;;7.40;5.20;;;;;;;18.21;44.26;97112.53;4893862;29;20642;-80
2023/03/20 11:01:26;;;;;;;7.33;5.63;;;;;;;18.35;44.06;97104.47;4879026;29;20197;-74
2023/03/20 11:03:54;;;;;;;10.80;6.50;;;;;;;18.23;44.57;97108.84;4878027;29;20202;-75
2023/03/20 11:06:27;;;;;;;8.93;5.67;;;;;;;18.48;44.79;97094.75;4893406;29;20198;-76
2023/03/20 11:08:54;;;;;;;8.67;5.33;;;;;;;18.50;44.64;97092.84;4879241;29;20234;-74
2023/03/20 11:11:24;;;;;;;7.20;5.00;;;;;;;18.49;44.31;97085.91;4908651;29;20201;-74
2023/03/20 11:13:52;;;;;;;6.97;4.40;;;;;;;18.47;42.94;97083.41;4872951;29;20226;-75
2023/03/20 11:16:25;;;;;;;6.07;4.50;;;;;;;18.62;43.76;97081.41;4879978;29;20208;-74
2023/03/20 11:18:53;;;;;;;6.97;5.17;;;;;;;18.55;44.02;97043.47;4891546;29;20223;-75
2023/03/20 11:21:24;;;;;;;5.70;4.30;;;;;;;18.49;42.47;97054.44;4891370;29;20286;-75
2023/03/20 11:23:53;;;;;;;10.10;4.60;;;;;;;18.74;41.81;97059.47;4891235;29;20654;-76
2023/03/20 11:26:40;;;;;;;6.13;4.50;;;;;;;18.81;41.15;97050.19;4892392;29;20651;-76
2023/03/20 11:29:22;;;;;;;9.77;4.57;;;;;;;19.02;42.29;97048.47;4898455;29;20222;-76
2023/03/20 11:31:50;;;;;;;5.77;4.33;;;;;;;18.83;42.79;97056.16;4891203;29;20305;-76
2023/03/20 11:34:21;;;;;;;8.73;4.50;;;;;;;19.03;42.63;97055.41;4889869;29;20202;-78
2023/03/20 11:37:00;;;;;;;8.67;5.20;;;;;;;18.86;42.09;97055.88;4891039;29;20198;-78
2023/03/20 11:39:38;;;;;;;6.67;4.37;;;;;;;18.72;41.22;97018.56;4874984;29;20234;-78
2023/03/20 11:42:22;;;;;;;7.03;4.17;;;;;;;18.92;40.72;97042.28;4889943;29;20214;-74
2023/03/20 11:45:00;;;;;;;8.70;4.90;;;;;;;18.92;40.61;97039.66;4891711;29;20675;-74
2023/03/20 11:47:32;;;;;;;7.73;4.17;;;;;;;18.88;40.47;97038.22;4890773;29;20205;-75
2023/03/20 11:50:03;;;;;;;8.57;4.70;;;;;;;19.16;40.44;97029.84;4889359;29;20283;-79
2023/03/20 11:52:33;;;;;;;5.07;4.23;;;;;;;19.07;40.75;97011.34;4891225;29;20266;-76
2023/03/20 11:55:05;;;;;;;5.50;4.20;;;;;;;19.02;40.67;96985.47;4889065;29;20625;-75
2023/03/20 11:57:35;;;;;;;8.77;4.63;;;;;;;19.39;40.12;97026.22;4891109;29;20679;-78
2023/03/20 12:00:11;;;;;;;8.90;4.63;;;;;;;19.51;39.68;97020.94;4890510;29;20209;-76
2023/03/20 12:02:42;;;;;;;6.57;4.10;;;;;;;19.12;40.15;97010.06;4890481;29;20185;-78
2023/03/20 12:05:28;;;;;;;4.13;3.30;;;;;;;19.33;38.85;97008.31;4890892;29;20218;-78
2023/03/20 12:08:01;;;;;;;6.43;3.70;;;;;;;19.55;39.17;97012.69;4890388;29;20254;-77
2023/03/20 12:10:35;;;;;;;7.40;4.10;;;;;;;19.64;38.37;97004.03;4889285;29;20282;-75
2023/03/20 12:13:16;;;;;;;23.83;13.33;;;;;;;19.68;37.76;97002.00;4890395;29;20234;-79
2023/03/20 12:15:50;;;;;;;5.57;4.07;;;;;;;19.57;37.72;97004.66;4890774;29;20201;-74
2023/03/20 12:18:37;;;;;;;5.47;4.03;;;;;;;19.63;37.87;96996.28;4890552;29;20285;-75
2023/03/20 12:21:32;;;;;;;5.43;3.70;;;;;;;19.82;38.13;97004.31;4890757;29;20207;-77
2023/03/20 12:24:28;;;;;;;8.80;4.90;;;;;;;19.93;37.89;96998.97;4890620;29;20191;-76
2023/03/20 12:27:20;;;;;;;5.57;4.40;;;;;;;19.75;38.48;96979.50;4890424;29;20222;-75
2023/03/20 12:30:11;;;;;;;9.20;4.60;;;;;;;19.86;37.89;96982.06;4889971;29;20210;-74
2023/03/20 12:32:56;;;;;;;4.87;3.60;;;;;;;19.92;37.48;96986.81;4890671;29;20677;-75
2023/03/20 12:35:44;;;;;;;6.03;4.20;;;;;;;19.65;38.33;96979.44;4889653;29;20647;-78
2023/03/20 12:38:37;;;;;;;5.27;3.90;;;;;;;19.73;37.90;96973.53;4890231;29;20313;-77
2023/03/20 12:41:12;;;;;;;11.70;5.47;;;;;;;19.85;38.52;96972.50;4890369;29;20204;-74
2023/03/20 12:44:14;;;;;;;9.30;4.63;;;;;;;19.90;38.48;96967.72;4890451;29;20215;-75
2023/03/20 12:47:07;;;;;;;6.43;4.17;;;;;;;19.58;39.16;96959.06;4872706;29;20221;-79
2023/03/20 12:50:01;;;;;;;6.37;5.00;;;;;;;19.64;39.36;96976.94;4890633;29;20203;-75
2023/03/20 12:52:48;;;;;;;8.30;5.27;;;;;;;19.74;39.56;96972.59;4893875;29;20265;-78
2023/03/20 12:55:50;;;;;;;14.27;5.90;;;;;;;19.93;38.39;96976.16;4893628;29;20198;-74
2023/03/20 12:58:44;;;;;;;6.87;4.77;;;;;;;19.84;39.57;96970.84;4873849;29;20203;-77
2023/03/20 13:01:56;;;;;;;16.43;5.57;;;;;;;19.94;39.10;96969.13;4885978;29;20218;-77
2023/03/20 13:04:36;;;;;;;7.97;4.90;;;;;;;19.79;38.32;96962.50;4892533;29;20277;-79
2023/03/20 13:07:18;;;;;;;17.33;6.30;;;;;;;19.87;38.63;96947.75;4893691;29;20199;-74
2023/03/20 13:10:18;;;;;;;12.47;5.33;;;;;;;19.88;39.94;96965.22;4893569;29;20199;-74
2023/03/20 13:13:32;;;;;;;14.23;5.30;;;;;;;19.82;40.33;96959.63;4889391;29;20243;-78
2023/03/20 13:16:12;;;;;;;6.83;4.57;;;;;;;19.89;39.55;96952.88;4888151;29;20234;-77
2023/03/20 13:18:49;;;;;;;7.53;4.87;;;;;;;19.85;39.72;96951.47;4893404;29;20199;-77
2023/03/20 13:21:28;;;;;;;8.03;5.10;;;;;;;19.83;39.81;96929.75;4893206;29;20199;-76
2023/03/20 13:24:10;;;;;;;13.70;6.13;;;;;;;20.03;40.00;96953.38;4892695;29;20194;-77
2023/03/20 13:27:05;;;;;;;10.63;5.80;;;;;;;20.14;39.85;96947.22;4893569;29;20214;-79
2023/03/20 13:29:45;;;;;;;8.47;5.30;;;;;;;19.78;40.30;96952.97;4885262;29;20307;-74
2023/03/20 13:32:34;;;;;;;9.97;4.87;;;;;;;19.75;40.14;96955.84;4902342;29;20249;-75
2023/03/20 13:35:01;;;;;;;11.10;5.60;;;;;;;19.77;40.07;96953.91;4911819;29;20191;-77